aviador You're here:

KGED Decoded Metar

GEORGETOWN in DE, USA
Report Time2017-11-21 05:54:00
UTC Time2017-11-21 06:04:33
Flight Rules vfr VFR
Wind200° at 06 kt
W.Decomp.*RWY 22: 5.9 kt HW 0.8 kt LCW
RWY 28: 2.2 kt HW 5.6 kt LCW
W.Rank200° ranks 3
Current wind is below 200° avg. (7.5)
Visibility9999 m
Phenomena:N/A
Clouds:N/A
Expected CloudBase > 1,200 ft AGL from Temp-Dew spread
CeilingNone
Temp02°C (ISA -13)
Dew Point-1°C (81% RH)
AAT-2.3°C
QNH1023 hPa
Density Alt-1,768 ft
Elevation62 ft
Report Wrong Elevation
Raw Report
KGED 210554Z AUTO 20006KT 10SM CLR 02/M01 A3022 RMK AO2 SLP233
T00221006 10061 20017 51001=

Extra information for KGED:More info

Metar Taf Metar & Taf Last 4 Metars F.Rules Stats Wind Profile Meteogram Temp Stats Airport Information Weather charts Add Link Nearby VenuesMetar ALERT Operation Metar Decoded Social comments

AIRNAV info for KGED